sensor_id;sensor_type;location;lat;lon;timestamp;pressure;altitude;pressure_sealevel;temperature;humidity
67015;BME280;1033;52.560;13.374;2023-03-20T00:01:21;101013.78;;;11.73;83.51
67015;BME280;1033;52.560;13.374;2023-03-20T00:03:51;101020.06;;;11.74;83.87
67015;BME280;1033;52.560;13.374;2023-03-20T00:06:23;101012.97;;;11.80;83.40
67015;BME280;1033;52.560;13.374;2023-03-20T00:08:53;101015.47;;;11.74;83.48
67015;BME280;1033;52.560;13.374;2023-03-20T00:11:28;101020.22;;;11.66;83.97
67015;BME280;1033;52.560;13.374;2023-03-20T00:13:59;101026.28;;;11.61;84.56
67015;BME280;1033;52.560;13.374;2023-03-20T00:16:31;101022.50;;;11.62;84.30
67015;BME280;1033;52.560;13.374;2023-03-20T00:19:00;101024.56;;;11.47;84.84
67015;BME280;1033;52.560;13.374;2023-03-20T00:22:00;101019.53;;;11.44;85.66
67015;BME280;1033;52.560;13.374;2023-03-20T00:24:30;101018.09;;;11.48;85.11
67015;BME280;1033;52.560;13.374;2023-03-20T00:26:59;101016.22;;;11.42;85.12
67015;BME280;1033;52.560;13.374;2023-03-20T00:29:30;101019.94;;;11.34;85.72
67015;BME280;1033;52.560;13.374;2023-03-20T00:32:01;101022.84;;;11.26;85.79
67015;BME280;1033;52.560;13.374;2023-03-20T00:34:31;101018.34;;;10.99;86.92
67015;BME280;1033;52.560;13.374;2023-03-20T00:37:01;101012.63;;;10.74;88.35
67015;BME280;1033;52.560;13.374;2023-03-20T00:39:30;101012.94;;;10.58;89.30
67015;BME280;1033;52.560;13.374;2023-03-20T00:42:02;101011.91;;;10.59;90.07
67015;BME280;1033;52.560;13.374;2023-03-20T00:44:35;101010.53;;;10.42;90.83
67015;BME280;1033;52.560;13.374;2023-03-20T00:47:16;100999.88;;;10.34;92.05
67015;BME280;1033;52.560;13.374;2023-03-20T00:49:47;101001.03;;;10.18;92.59
67015;BME280;1033;52.560;13.374;2023-03-20T00:52:20;100999.47;;;10.30;93.07
67015;BME280;1033;52.560;13.374;2023-03-20T00:54:51;101005.31;;;10.34;92.69
67015;BME280;1033;52.560;13.374;2023-03-20T00:57:23;100996.63;;;10.45;92.13
67015;BME280;1033;52.560;13.374;2023-03-20T00:59:56;100996.63;;;10.17;92.62
67015;BME280;1033;52.560;13.374;2023-03-20T01:02:28;101000.06;;;10.04;93.92
67015;BME280;1033;52.560;13.374;2023-03-20T01:04:59;100996.50;;;10.04;95.07
67015;BME280;1033;52.560;13.374;2023-03-20T01:07:31;100998.19;;;10.05;95.30
67015;BME280;1033;52.560;13.374;2023-03-20T01:10:02;101001.09;;;10.03;94.69
67015;BME280;1033;52.560;13.374;2023-03-20T01:12:32;101000.53;;;9.87;95.64
67015;BME280;1033;52.560;13.374;2023-03-20T01:15:01;101005.38;;;9.91;96.27
67015;BME280;1033;52.560;13.374;2023-03-20T01:17:30;101007.47;;;9.96;95.97
67015;BME280;1033;52.560;13.374;2023-03-20T01:19:59;101001.94;;;9.83;96.05
67015;BME280;1033;52.560;13.374;2023-03-20T01:22:28;101010.16;;;9.68;97.08
67015;BME280;1033;52.560;13.374;2023-03-20T01:28:29;101005.88;;;9.59;99.19
67015;BME280;1033;52.560;13.374;2023-03-20T01:30:59;101003.91;;;9.68;98.67
67015;BME280;1033;52.560;13.374;2023-03-20T01:33:28;101006.66;;;9.74;98.15
67015;BME280;1033;52.560;13.374;2023-03-20T01:35:58;101013.09;;;9.73;98.42
67015;BME280;1033;52.560;13.374;2023-03-20T01:38:27;101010.59;;;9.72;98.44
67015;BME280;1033;52.560;13.374;2023-03-20T01:41:02;101002.09;;;9.53;99.16
67015;BME280;1033;52.560;13.374;2023-03-20T01:43:35;101005.72;;;9.88;98.88
67015;BME280;1033;52.560;13.374;2023-03-20T01:46:15;101005.81;;;9.74;98.95
67015;BME280;1033;52.560;13.374;2023-03-20T01:49:06;101003.56;;;9.77;99.51
67015;BME280;1033;52.560;13.374;2023-03-20T01:51:36;101008.84;;;9.85;99.85
67015;BME280;1033;52.560;13.374;2023-03-20T01:54:13;101003.25;;;10.15;97.90
67015;BME280;1033;52.560;13.374;2023-03-20T01:56:53;101007.22;;;10.40;95.47
67015;BME280;1033;52.560;13.374;2023-03-20T01:59:30;101013.66;;;10.39;95.33
67015;BME280;1033;52.560;13.374;2023-03-20T02:02:02;101015.16;;;10.48;94.62
67015;BME280;1033;52.560;13.374;2023-03-20T02:04:34;101023.94;;;10.50;94.09
67015;BME280;1033;52.560;13.374;2023-03-20T02:07:10;101019.69;;;10.41;94.46
67015;BME280;1033;52.560;13.374;2023-03-20T02:09:46;101023.22;;;10.41;95.12
67015;BME280;1033;52.560;13.374;2023-03-20T02:12:22;101027.44;;;10.44;94.69
67015;BME280;1033;52.560;13.374;2023-03-20T02:14:52;101016.97;;;10.41;94.46
67015;BME280;1033;52.560;13.374;2023-03-20T02:17:42;101022.75;;;10.31;94.83
67015;BME280;1033;52.560;13.374;2023-03-20T02:20:20;101014.00;;;10.29;95.29
67015;BME280;1033;52.560;13.374;2023-03-20T02:26:29;101005.94;;;10.36;94.50
67015;BME280;1033;52.560;13.374;2023-03-20T02:29:48;101016.19;;;10.40;94.41
67015;BME280;1033;52.560;13.374;2023-03-20T02:33:02;101008.66;;;10.36;94.95
67015;BME280;1033;52.560;13.374;2023-03-20T02:41:52;101010.88;;;10.26;96.03
67015;BME280;1033;52.560;13.374;2023-03-20T02:44:30;101012.75;;;10.32;95.41
67015;BME280;1033;52.560;13.374;2023-03-20T02:47:06;101008.06;;;10.40;95.00
67015;BME280;1033;52.560;13.374;2023-03-20T02:49:52;101022.41;;;10.41;95.36
67015;BME280;1033;52.560;13.374;2023-03-20T02:52:31;101015.59;;;10.45;94.67
67015;BME280;1033;52.560;13.374;2023-03-20T02:55:13;101012.22;;;10.43;94.93
67015;BME280;1033;52.560;13.374;2023-03-20T02:57:49;101019.94;;;10.46;94.85
67015;BME280;1033;52.560;13.374;2023-03-20T03:00:26;101019.16;;;10.52;94.19
67015;BME280;1033;52.560;13.374;2023-03-20T03:03:03;101020.34;;;10.43;95.17
67015;BME280;1033;52.560;13.374;2023-03-20T03:05:37;101014.94;;;10.43;94.90
67015;BME280;1033;52.560;13.374;2023-03-20T03:08:09;101005.00;;;10.50;94.97
67015;BME280;1033;52.560;13.374;2023-03-20T03:10:44;101019.94;;;10.46;94.90
67015;BME280;1033;52.560;13.374;2023-03-20T03:13:19;101014.53;;;10.46;95.05
67015;BME280;1033;52.560;13.374;2023-03-20T03:15:51;101015.84;;;10.57;94.55
67015;BME280;1033;52.560;13.374;2023-03-20T03:18:24;101016.75;;;10.70;93.31
67015;BME280;1033;52.560;13.374;2023-03-20T03:20:56;101022.16;;;10.70;93.30
67015;BME280;1033;52.560;13.374;2023-03-20T03:27:16;101021.66;;;10.54;94.27
67015;BME280;1033;52.560;13.374;2023-03-20T03:29:50;101027.03;;;10.47;94.74
67015;BME280;1033;52.560;13.374;2023-03-20T03:32:32;101034.28;;;10.40;95.44
67015;BME280;1033;52.560;13.374;2023-03-20T03:38:27;101030.72;;;10.39;95.36
67015;BME280;1033;52.560;13.374;2023-03-20T03:41:12;101029.06;;;10.38;95.74
67015;BME280;1033;52.560;13.374;2023-03-20T03:43:52;101028.22;;;10.38;95.31
67015;BME280;1033;52.560;13.374;2023-03-20T03:46:26;101022.97;;;10.36;95.45
67015;BME280;1033;52.560;13.374;2023-03-20T03:49:02;101030.06;;;10.31;95.87
67015;BME280;1033;52.560;13.374;2023-03-20T03:51:34;101028.13;;;10.25;96.03
67015;BME280;1033;52.560;13.374;2023-03-20T03:54:12;101027.47;;;10.23;96.55
67015;BME280;1033;52.560;13.374;2023-03-20T03:56:50;101032.25;;;10.21;96.82
67015;BME280;1033;52.560;13.374;2023-03-20T03:59:25;101033.91;;;10.22;96.88
67015;BME280;1033;52.560;13.374;2023-03-20T04:02:00;101022.28;;;10.21;96.65
67015;BME280;1033;52.560;13.374;2023-03-20T04:04:31;101024.25;;;10.13;97.11
67015;BME280;1033;52.560;13.374;2023-03-20T04:07:01;101033.78;;;10.09;97.22
67015;BME280;1033;52.560;13.374;2023-03-20T04:09:31;101031.06;;;10.09;97.45
67015;BME280;1033;52.560;13.374;2023-03-20T04:12:00;101035.88;;;10.07;97.74
67015;BME280;1033;52.560;13.374;2023-03-20T04:14:31;101041.69;;;10.10;97.61
67015;BME280;1033;52.560;13.374;2023-03-20T04:17:00;101043.72;;;10.01;97.82
67015;BME280;1033;52.560;13.374;2023-03-20T04:19:31;101050.72;;;9.96;98.16
67015;BME280;1033;52.560;13.374;2023-03-20T04:22:01;101043.91;;;10.00;98.83
67015;BME280;1033;52.560;13.374;2023-03-20T04:24:30;101052.59;;;9.95;98.60
67015;BME280;1033;52.560;13.374;2023-03-20T04:26:59;101053.28;;;10.04;98.41
67015;BME280;1033;52.560;13.374;2023-03-20T04:29:30;101050.78;;;10.02;98.43
67015;BME280;1033;52.560;13.374;2023-03-20T04:32:17;101057.03;;;10.03;98.46
67015;BME280;1033;52.560;13.374;2023-03-20T04:35:08;101059.09;;;10.01;99.17
67015;BME280;1033;52.560;13.374;2023-03-20T04:38:03;101047.44;;;10.00;98.79
67015;BME280;1033;52.560;13.374;2023-03-20T04:40:34;101052.00;;;10.00;98.97
67015;BME280;1033;52.560;13.374;2023-03-20T04:43:04;101048.06;;;10.02;99.64
67015;BME280;1033;52.560;13.374;2023-03-20T04:45:35;101055.31;;;9.95;99.84
67015;BME280;1033;52.560;13.374;2023-03-20T04:48:07;101056.72;;;9.91;100.00
67015;BME280;1033;52.560;13.374;2023-03-20T04:50:37;101051.16;;;9.99;99.57
67015;BME280;1033;52.560;13.374;2023-03-20T04:53:06;101061.84;;;10.08;99.84
67015;BME280;1033;52.560;13.374;2023-03-20T04:55:35;101058.78;;;10.11;99.14
67015;BME280;1033;52.560;13.374;2023-03-20T04:58:04;101048.97;;;10.10;99.25
67015;BME280;1033;52.560;13.374;2023-03-20T05:00:35;101060.19;;;10.07;99.90
67015;BME280;1033;52.560;13.374;2023-03-20T05:03:09;101057.88;;;10.03;100.00
67015;BME280;1033;52.560;13.374;2023-03-20T05:05:39;101061.78;;;10.22;100.00
67015;BME280;1033;52.560;13.374;2023-03-20T05:08:09;101061.41;;;10.25;99.28
67015;BME280;1033;52.560;13.374;2023-03-20T05:10:39;101065.34;;;10.23;99.72
67015;BME280;1033;52.560;13.374;2023-03-20T05:13:31;101065.22;;;10.31;99.26
67015;BME280;1033;52.560;13.374;2023-03-20T05:16:37;101063.97;;;10.33;99.05
67015;BME280;1033;52.560;13.374;2023-03-20T05:19:34;101064.56;;;10.29;99.35
67015;BME280;1033;52.560;13.374;2023-03-20T05:22:19;101062.50;;;10.31;98.97
67015;BME280;1033;52.560;13.374;2023-03-20T05:25:03;101059.34;;;10.27;99.59
67015;BME280;1033;52.560;13.374;2023-03-20T05:27:53;101060.56;;;10.25;100.00
67015;BME280;1033;52.560;13.374;2023-03-20T05:30:50;101062.50;;;10.31;99.73
67015;BME280;1033;52.560;13.374;2023-03-20T05:33:36;101064.16;;;10.32;99.84
67015;BME280;1033;52.560;13.374;2023-03-20T05:36:12;101061.59;;;10.24;100.00
67015;BME280;1033;52.560;13.374;2023-03-20T05:38:56;101064.13;;;10.25;100.00
67015;BME280;1033;52.560;13.374;2023-03-20T05:41:45;101061.44;;;10.32;100.00
67015;BME280;1033;52.560;13.374;2023-03-20T05:44:32;101066.44;;;10.28;100.00
67015;BME280;1033;52.560;13.374;2023-03-20T05:47:30;101060.59;;;10.31;100.00
67015;BME280;1033;52.560;13.374;2023-03-20T05:50:33;101059.91;;;10.44;99.76
67015;BME280;1033;52.560;13.374;2023-03-20T05:53:08;101071.50;;;10.38;100.00
67015;BME280;1033;52.560;13.374;2023-03-20T05:55:43;101072.03;;;10.27;100.00
67015;BME280;1033;52.560;13.374;2023-03-20T05:58:31;101068.81;;;10.17;100.00
67015;BME280;1033;52.560;13.374;2023-03-20T06:01:00;101071.69;;;10.15;100.00
67015;BME280;1033;52.560;13.374;2023-03-20T06:03:49;101073.41;;;10.16;100.00
67015;BME280;1033;52.560;13.374;2023-03-20T06:07:05;101079.69;;;10.23;100.00
67015;BME280;1033;52.560;13.374;2023-03-20T06:09:35;101086.59;;;10.26;100.00
67015;BME280;1033;52.560;13.374;2023-03-20T06:12:09;101095.84;;;10.17;100.00
67015;BME280;1033;52.560;13.374;2023-03-20T06:14:39;101095.09;;;10.23;100.00
67015;BME280;1033;52.560;13.374;2023-03-20T06:17:09;101109.44;;;10.02;100.00
67015;BME280;1033;52.560;13.374;2023-03-20T06:19:38;101112.22;;;9.87;100.00
67015;BME280;1033;52.560;13.374;2023-03-20T06:22:08;101113.34;;;9.78;100.00
67015;BME280;1033;52.560;13.374;2023-03-20T06:24:38;101113.22;;;9.86;100.00
67015;BME280;1033;52.560;13.374;2023-03-20T06:27:08;101119.59;;;9.43;100.00
67015;BME280;1033;52.560;13.374;2023-03-20T06:29:38;101123.50;;;9.26;100.00
67015;BME280;1033;52.560;13.374;2023-03-20T06:32:14;101125.31;;;9.19;100.00
67015;BME280;1033;52.560;13.374;2023-03-20T06:34:47;101135.09;;;9.20;100.00
67015;BME280;1033;52.560;13.374;2023-03-20T06:37:18;101142.25;;;9.27;100.00
67015;BME280;1033;52.560;13.374;2023-03-20T06:39:48;101136.69;;;9.14;100.00
67015;BME280;1033;52.560;13.374;2023-03-20T06:42:18;101137.97;;;9.18;100.00
67015;BME280;1033;52.560;13.374;2023-03-20T06:44:48;101147.53;;;9.21;100.00
67015;BME280;1033;52.560;13.374;2023-03-20T06:47:52;101150.22;;;9.35;100.00
67015;BME280;1033;52.560;13.374;2023-03-20T06:50:21;101151.94;;;9.22;100.00
67015;BME280;1033;52.560;13.374;2023-03-20T06:52:53;101146.63;;;9.43;100.00
67015;BME280;1033;52.560;13.374;2023-03-20T06:55:48;101139.72;;;9.26;100.00
67015;BME280;1033;52.560;13.374;2023-03-20T06:58:20;101142.69;;;9.45;100.00
67015;BME280;1033;52.560;13.374;2023-03-20T07:00:51;101147.59;;;9.56;100.00
67015;BME280;1033;52.560;13.374;2023-03-20T07:03:21;101149.94;;;9.45;100.00
67015;BME280;1033;52.560;13.374;2023-03-20T07:05:50;101161.13;;;9.42;100.00
67015;BME280;1033;52.560;13.374;2023-03-20T07:08:22;101162.97;;;9.56;100.00
67015;BME280;1033;52.560;13.374;2023-03-20T07:10:52;101158.72;;;9.18;100.00
67015;BME280;1033;52.560;13.374;2023-03-20T07:13:21;101165.72;;;9.27;100.00
67015;BME280;1033;52.560;13.374;2023-03-20T07:15:51;101171.50;;;9.38;100.00
67015;BME280;1033;52.560;13.374;2023-03-20T07:18:36;101177.63;;;9.32;100.00
67015;BME280;1033;52.560;13.374;2023-03-20T07:21:06;101177.34;;;9.12;100.00
67015;BME280;1033;52.560;13.374;2023-03-20T07:23:37;101181.16;;;9.03;100.00
67015;BME280;1033;52.560;13.374;2023-03-20T07:26:07;101171.84;;;9.21;100.00
67015;BME280;1033;52.560;13.374;2023-03-20T07:28:36;101182.09;;;9.40;100.00
67015;BME280;1033;52.560;13.374;2023-03-20T07:31:19;101184.97;;;9.53;100.00
67015;BME280;1033;52.560;13.374;2023-03-20T07:33:53;101190.13;;;9.33;100.00
67015;BME280;1033;52.560;13.374;2023-03-20T07:36:22;101181.91;;;9.27;100.00
67015;BME280;1033;52.560;13.374;2023-03-20T07:38:55;101189.16;;;9.26;100.00
67015;BME280;1033;52.560;13.374;2023-03-20T07:41:30;101184.06;;;9.16;100.00
67015;BME280;1033;52.560;13.374;2023-03-20T07:44:05;101191.13;;;9.18;100.00
67015;BME280;1033;52.560;13.374;2023-03-20T07:47:06;101194.00;;;9.01;100.00
67015;BME280;1033;52.560;13.374;2023-03-20T07:49:36;101188.59;;;9.01;100.00
67015;BME280;1033;52.560;13.374;2023-03-20T07:52:07;101194.28;;;9.06;100.00
67015;BME280;1033;52.560;13.374;2023-03-20T07:54:38;101186.47;;;9.26;100.00
67015;BME280;1033;52.560;13.374;2023-03-20T07:57:07;101182.56;;;9.29;100.00
67015;BME280;1033;52.560;13.374;2023-03-20T07:59:36;101187.03;;;9.36;100.00
67015;BME280;1033;52.560;13.374;2023-03-20T08:02:06;101174.72;;;9.63;100.00
67015;BME280;1033;52.560;13.374;2023-03-20T08:04:35;101181.06;;;9.91;100.00
67015;BME280;1033;52.560;13.374;2023-03-20T08:07:04;101188.03;;;10.00;98.59
67015;BME280;1033;52.560;13.374;2023-03-20T08:09:34;101193.72;;;10.06;98.80
67015;BME280;1033;52.560;13.374;2023-03-20T08:12:05;101194.59;;;9.91;98.32
67015;BME280;1033;52.560;13.374;2023-03-20T08:14:34;101196.69;;;10.11;98.35
67015;BME280;1033;52.560;13.374;2023-03-20T08:17:05;101205.16;;;10.08;98.03
67015;BME280;1033;52.560;13.374;2023-03-20T08:19:43;101201.41;;;9.87;98.46
67015;BME280;1033;52.560;13.374;2023-03-20T08:22:12;101225.13;;;10.07;97.70
67015;BME280;1033;52.560;13.374;2023-03-20T08:24:41;101223.66;;;9.89;97.89
67015;BME280;1033;52.560;13.374;2023-03-20T08:27:12;101214.94;;;9.87;98.52
67015;BME280;1033;52.560;13.374;2023-03-20T08:29:41;101216.22;;;9.91;98.74
67015;BME280;1033;52.560;13.374;2023-03-20T08:32:10;101215.13;;;10.07;97.01
67015;BME280;1033;52.560;13.374;2023-03-20T08:34:39;101209.91;;;10.20;95.19
67015;BME280;1033;52.560;13.374;2023-03-20T08:37:08;101214.63;;;10.33;93.87
67015;BME280;1033;52.560;13.374;2023-03-20T08:39:39;101212.28;;;10.51;92.02
67015;BME280;1033;52.560;13.374;2023-03-20T08:42:08;101204.16;;;10.72;91.55
67015;BME280;1033;52.560;13.374;2023-03-20T08:44:38;101194.72;;;11.24;88.24
67015;BME280;1033;52.560;13.374;2023-03-20T08:47:08;101203.34;;;11.34;86.06
67015;BME280;1033;52.560;13.374;2023-03-20T08:49:38;101198.34;;;11.38;84.57
67015;BME280;1033;52.560;13.374;2023-03-20T08:52:07;101203.22;;;11.90;83.26
67015;BME280;1033;52.560;13.374;2023-03-20T08:54:36;101205.41;;;12.14;80.35
67015;BME280;1033;52.560;13.374;2023-03-20T08:57:05;101199.13;;;12.13;78.89
67015;BME280;1033;52.560;13.374;2023-03-20T09:03:26;101205.66;;;12.45;77.36
67015;BME280;1033;52.560;13.374;2023-03-20T09:05:55;101203.75;;;12.39;77.17
67015;BME280;1033;52.560;13.374;2023-03-20T09:08:24;101203.09;;;12.17;76.97
67015;BME280;1033;52.560;13.374;2023-03-20T09:10:57;101206.63;;;12.05;78.40
67015;BME280;1033;52.560;13.374;2023-03-20T09:13:27;101213.81;;;12.65;77.35
67015;BME280;1033;52.560;13.374;2023-03-20T09:15:57;101200.88;;;12.67;75.44
67015;BME280;1033;52.560;13.374;2023-03-20T09:18:27;101202.53;;;13.01;73.64
67015;BME280;1033;52.560;13.374;2023-03-20T09:24:41;101202.91;;;13.37;71.43
67015;BME280;1033;52.560;13.374;2023-03-20T09:27:11;101208.59;;;13.10;72.45
67015;BME280;1033;52.560;13.374;2023-03-20T09:29:40;101204.66;;;12.73;72.61
67015;BME280;1033;52.560;13.374;2023-03-20T09:32:11;101203.38;;;12.75;72.97
67015;BME280;1033;52.560;13.374;2023-03-20T09:34:53;101202.34;;;12.96;72.35
67015;BME280;1033;52.560;13.374;2023-03-20T09:37:23;101207.94;;;12.29;72.97
67015;BME280;1033;52.560;13.374;2023-03-20T09:39:52;101202.94;;;12.32;74.33
67015;BME280;1033;52.560;13.374;2023-03-20T09:42:52;101201.91;;;12.46;73.57
67015;BME280;1033;52.560;13.374;2023-03-20T09:45:38;101203.75;;;12.33;73.96
67015;BME280;1033;52.560;13.374;2023-03-20T09:48:14;101205.88;;;12.44;73.49
67015;BME280;1033;52.560;13.374;2023-03-20T09:50:55;101206.28;;;12.34;72.67
67015;BME280;1033;52.560;13.374;2023-03-20T09:53:30;101204.19;;;12.56;72.42
67015;BME280;1033;52.560;13.374;2023-03-20T09:56:20;101197.53;;;12.58;71.24
67015;BME280;1033;52.560;13.374;2023-03-20T09:58:54;101210.00;;;12.27;71.61
67015;BME280;1033;52.560;13.374;2023-03-20T10:01:26;101215.88;;;12.37;71.71
67015;BME280;1033;52.560;13.374;2023-03-20T10:03:59;101212.06;;;12.18;72.18
67015;BME280;1033;52.560;13.374;2023-03-20T10:06:31;101223.16;;;12.30;71.95
67015;BME280;1033;52.560;13.374;2023-03-20T10:09:03;101210.03;;;12.46;71.08
67015;BME280;1033;52.560;13.374;2023-03-20T10:12:02;101208.41;;;12.58;70.30
67015;BME280;1033;52.560;13.374;2023-03-20T10:14:44;101215.03;;;12.36;70.18
67015;BME280;1033;52.560;13.374;2023-03-20T10:17:26;101228.84;;;12.54;70.07
67015;BME280;1033;52.560;13.374;2023-03-20T10:20:09;101219.84;;;12.41;69.81
67015;BME280;1033;52.560;13.374;2023-03-20T10:22:48;101220.03;;;12.33;70.51
67015;BME280;1033;52.560;13.374;2023-03-20T10:25:25;101222.94;;;12.31;71.01
67015;BME280;1033;52.560;13.374;2023-03-20T10:27:59;101209.91;;;11.94;71.31
67015;BME280;1033;52.560;13.374;2023-03-20T10:30:42;101220.91;;;11.79;73.22
67015;BME280;1033;52.560;13.374;2023-03-20T10:33:47;101216.19;;;11.94;72.61
67015;BME280;1033;52.560;13.374;2023-03-20T10:36:45;101218.66;;;11.89;72.89
67015;BME280;1033;52.560;13.374;2023-03-20T10:39:32;101210.97;;;12.06;72.64
67015;BME280;1033;52.560;13.374;2023-03-20T10:42:08;101203.06;;;12.11;71.94
67015;BME280;1033;52.560;13.374;2023-03-20T10:44:44;101204.16;;;12.23;71.22
67015;BME280;1033;52.560;13.374;2023-03-20T10:47:20;101199.19;;;12.33;70.92
67015;BME280;1033;52.560;13.374;2023-03-20T10:50:00;101206.28;;;12.47;70.45
67015;BME280;1033;52.560;13.374;2023-03-20T10:52:32;101203.13;;;12.37;69.71
67015;BME280;1033;52.560;13.374;2023-03-20T10:55:07;101210.06;;;12.53;69.43
67015;BME280;1033;52.560;13.374;2023-03-20T10:57:41;101209.00;;;12.54;69.76
67015;BME280;1033;52.560;13.374;2023-03-20T11:00:17;101210.88;;;12.73;68.81
67015;BME280;1033;52.560;13.374;2023-03-20T11:02:48;101202.13;;;12.91;68.56
67015;BME280;1033;52.560;13.374;2023-03-20T11:05:23;101216.72;;;12.83;68.41
67015;BME280;1033;52.560;13.374;2023-03-20T11:08:01;101203.38;;;12.69;68.50
67015;BME280;1033;52.560;13.374;2023-03-20T11:10:36;101191.25;;;12.51;68.12
67015;BME280;1033;52.560;13.374;2023-03-20T11:13:14;101199.22;;;12.73;67.99
67015;BME280;1033;52.560;13.374;2023-03-20T11:15:46;101199.19;;;13.19;67.09
67015;BME280;1033;52.560;13.374;2023-03-20T11:18:15;101195.84;;;13.10;66.46
67015;BME280;1033;52.560;13.374;2023-03-20T11:20:46;101204.81;;;13.04;66.78
67015;BME280;1033;52.560;13.374;2023-03-20T11:23:18;101195.84;;;12.71;67.28
67015;BME280;1033;52.560;13.374;2023-03-20T11:25:55;101204.19;;;12.69;67.32
67015;BME280;1033;52.560;13.374;2023-03-20T11:28:31;101200.03;;;12.47;68.17
67015;BME280;1033;52.560;13.374;2023-03-20T11:31:04;101198.78;;;12.56;68.17
67015;BME280;1033;52.560;13.374;2023-03-20T11:33:37;101197.06;;;12.29;69.04
67015;BME280;1033;52.560;13.374;2023-03-20T11:36:11;101196.63;;;12.18;69.62
67015;BME280;1033;52.560;13.374;2023-03-20T11:38:47;101187.84;;;12.10;70.51
67015;BME280;1033;52.560;13.374;2023-03-20T11:41:23;101194.81;;;12.58;69.42
67015;BME280;1033;52.560;13.374;2023-03-20T11:43:53;101193.97;;;12.84;69.31
67015;BME280;1033;52.560;13.374;2023-03-20T11:46:23;101196.69;;;12.91;68.34
67015;BME280;1033;52.560;13.374;2023-03-20T11:49:06;101187.09;;;12.82;68.18
67015;BME280;1033;52.560;13.374;2023-03-20T11:51:44;101177.03;;;12.89;67.96
67015;BME280;1033;52.560;13.374;2023-03-20T11:54:16;101181.22;;;12.98;67.81
67015;BME280;1033;52.560;13.374;2023-03-20T11:56:56;101170.34;;;12.98;67.50
67015;BME280;1033;52.560;13.374;2023-03-20T11:59:28;101166.19;;;13.02;67.30
67015;BME280;1033;52.560;13.374;2023-03-20T12:02:00;101168.69;;;12.97;66.76
67015;BME280;1033;52.560;13.374;2023-03-20T12:04:32;101168.28;;;12.67;67.61
67015;BME280;1033;52.560;13.374;2023-03-20T12:07:08;101167.88;;;12.70;68.22
67015;BME280;1033;52.560;13.374;2023-03-20T12:09:42;101167.84;;;12.37;68.78
67015;BME280;1033;52.560;13.374;2023-03-20T12:12:23;101166.38;;;12.28;69.54
67015;BME280;1033;52.560;13.374;2023-03-20T12:14:59;101156.56;;;12.27;69.82
67015;BME280;1033;52.560;13.374;2023-03-20T12:17:38;101163.03;;;12.26;69.93
67015;BME280;1033;52.560;13.374;2023-03-20T12:20:24;101156.56;;;12.14;70.65
67015;BME280;1033;52.560;13.374;2023-03-20T12:25:51;101148.84;;;12.24;70.53
67015;BME280;1033;52.560;13.374;2023-03-20T12:28:29;101147.78;;;12.25;70.82
67015;BME280;1033;52.560;13.374;2023-03-20T12:31:25;101145.75;;;12.34;70.97
67015;BME280;1033;52.560;13.374;2023-03-20T12:33:57;101148.41;;;12.20;69.54
67015;BME280;1033;52.560;13.374;2023-03-20T12:36:32;101147.41;;;12.41;69.82
67015;BME280;1033;52.560;13.374;2023-03-20T12:39:13;101152.63;;;12.36;69.56
67015;BME280;1033;52.560;13.374;2023-03-20T12:41:53;101152.81;;;12.28;69.71
67015;BME280;1033;52.560;13.374;2023-03-20T12:44:37;101137.78;;;12.26;69.27
67015;BME280;1033;52.560;13.374;2023-03-20T12:47:25;101136.53;;;12.41;69.33
67015;BME280;1033;52.560;13.374;2023-03-20T12:50:04;101137.34;;;12.22;69.90
67015;BME280;1033;52.560;13.374;2023-03-20T12:52:44;101139.41;;;12.07;70.85
67015;BME280;1033;52.560;13.374;2023-03-20T12:55:23;101139.03;;;12.10;70.63
67015;BME280;1033;52.560;13.374;2023-03-20T12:58:10;101139.66;;;12.12;70.57
67015;BME280;1033;52.560;13.374;2023-03-20T13:00:50;101138.22;;;12.29;69.95
67015;BME280;1033;52.560;13.374;2023-03-20T13:03:40;101122.97;;;12.22;69.59
67015;BME280;1033;52.560;13.374;2023-03-20T13:06:16;101132.78;;;12.29;69.68
67015;BME280;1033;52.560;13.374;2023-03-20T13:12:03;101131.94;;;12.61;69.47
67015;BME280;1033;52.560;13.374;2023-03-20T13:14:40;101133.63;;;12.62;68.98
67015;BME280;1033;52.560;13.374;2023-03-20T13:17:18;101134.22;;;12.91;68.82
67015;BME280;1033;52.560;13.374;2023-03-20T13:20:01;101125.03;;;13.12;67.46
67015;BME280;1033;52.560;13.374;2023-03-20T13:22:43;101133.38;;;12.84;67.65
67015;BME280;1033;52.560;13.374;2023-03-20T13:25:25;101130.25;;;12.74;68.68
67015;BME280;1033;52.560;13.374;2023-03-20T13:28:01;101126.09;;;12.78;68.91
67015;BME280;1033;52.560;13.374;2023-03-20T13:30:38;101126.91;;;12.78;68.89
67015;BME280;1033;52.560;13.374;2023-03-20T13:33:25;101112.44;;;13.04;68.03
67015;BME280;1033;52.560;13.374;2023-03-20T13:36:02;101121.03;;;13.14;67.46
67015;BME280;1033;52.560;13.374;2023-03-20T13:39:04;101116.88;;;13.12;66.96
67015;BME280;1033;52.560;13.374;2023-03-20T13:41:38;101111.00;;;12.88;68.21
67015;BME280;1033;52.560;13.374;2023-03-20T13:44:09;101114.81;;;12.74;68.57
67015;BME280;1033;52.560;13.374;2023-03-20T13:47:09;101110.66;;;12.32;69.66
67015;BME280;1033;52.560;13.374;2023-03-20T13:49:47;101110.22;;;12.55;69.98
67015;BME280;1033;52.560;13.374;2023-03-20T13:52:21;101112.91;;;12.75;69.24
67015;BME280;1033;52.560;13.374;2023-03-20T13:55:13;101111.00;;;12.95;68.32
67015;BME280;1033;52.560;13.374;2023-03-20T13:57:57;101111.41;;;12.98;68.02
67015;BME280;1033;52.560;13.374;2023-03-20T14:00:34;101108.56;;;12.60;68.70
67015;BME280;1033;52.560;13.374;2023-03-20T14:03:19;101122.34;;;12.59;69.66
67015;BME280;1033;52.560;13.374;2023-03-20T14:05:54;101108.56;;;12.67;70.18
67015;BME280;1033;52.560;13.374;2023-03-20T14:08:31;101108.97;;;12.71;69.52
67015;BME280;1033;52.560;13.374;2023-03-20T14:11:13;101111.03;;;12.69;70.07